createdAt,value
2018-11-07T00:00:03.748Z,16.87
2018-11-07T00:02:33.222Z,18.50
2018-11-07T00:05:02.475Z,18.73
2018-11-07T00:07:31.682Z,18.42
2018-11-07T00:10:00.671Z,18.00
2018-11-07T00:12:29.560Z,19.02
2018-11-07T00:14:59.118Z,18.75
2018-11-07T00:17:27.856Z,17.57
2018-11-07T00:19:57.066Z,18.52
2018-11-07T00:22:26.678Z,19.65
2018-11-07T00:24:55.843Z,19.70
2018-11-07T00:27:24.650Z,19.57
2018-11-07T00:29:53.610Z,20.72
2018-11-07T00:32:23.255Z,20.05
2018-11-07T00:34:52.263Z,19.02
2018-11-07T00:37:21.487Z,19.67
2018-11-07T00:39:50.543Z,19.00
2018-11-07T00:42:19.527Z,18.05
2018-11-07T00:44:48.740Z,16.17
2018-11-07T00:47:17.623Z,14.83
2018-11-07T00:49:46.638Z,15.30
2018-11-07T00:52:15.633Z,14.10
2018-11-07T00:54:44.748Z,13.45
2018-11-07T00:57:13.695Z,13.05
2018-11-07T00:59:43.054Z,13.45
2018-11-07T01:02:11.986Z,13.93
2018-11-07T01:04:41.295Z,13.80
2018-11-07T01:07:11.243Z,13.00
2018-11-07T01:09:40.633Z,13.05
2018-11-07T01:12:09.803Z,14.28
2018-11-07T01:14:39.117Z,13.62
2018-11-07T01:17:08.134Z,12.98
2018-11-07T01:19:37.312Z,14.10
2018-11-07T01:22:06.827Z,13.68
2018-11-07T01:24:36.031Z,12.98
2018-11-07T01:27:04.947Z,12.65
2018-11-07T01:29:34.954Z,13.18
2018-11-07T01:32:04.107Z,11.63
2018-11-07T01:34:33.210Z,13.30
2018-11-07T01:37:02.735Z,12.80
2018-11-07T01:39:31.946Z,12.63
2018-11-07T01:42:01.294Z,12.47
2018-11-07T01:44:30.482Z,12.45
2018-11-07T01:46:59.745Z,12.07
2018-11-07T01:49:29.022Z,11.25
2018-11-07T01:51:58.251Z,11.05
2018-11-07T01:54:27.415Z,11.18
2018-11-07T01:56:56.618Z,12.47
2018-11-07T01:59:25.994Z,11.22
2018-11-07T02:01:55.356Z,12.45
2018-11-07T02:04:24.533Z,13.08
2018-11-07T02:06:53.738Z,12.37
2018-11-07T02:09:23.094Z,12.45
2018-11-07T02:11:52.430Z,12.88
2018-11-07T02:14:21.910Z,12.93
2018-11-07T02:16:51.125Z,13.45
2018-11-07T02:19:20.333Z,12.85
2018-11-07T02:21:49.697Z,13.38
2018-11-07T02:24:18.810Z,13.60
2018-11-07T02:26:48.054Z,13.05
2018-11-07T02:29:17.578Z,13.28
2018-11-07T02:31:47.402Z,13.08
2018-11-07T02:34:16.797Z,13.93
2018-11-07T02:36:46.485Z,13.30
2018-11-07T02:39:16.170Z,13.88
2018-11-07T02:41:45.236Z,13.83
2018-11-07T02:44:15.023Z,13.45
2018-11-07T02:46:44.527Z,14.23
2018-11-07T02:49:13.795Z,14.83
2018-11-07T02:51:43.327Z,13.75
2018-11-07T02:54:12.376Z,14.00
2018-11-07T02:56:41.495Z,14.30
2018-11-07T02:59:10.586Z,14.68
2018-11-07T03:01:39.826Z,14.07
2018-11-07T03:04:09.273Z,14.13
2018-11-07T03:06:38.392Z,14.60
2018-11-07T03:09:09.582Z,14.87
2018-11-07T03:11:39.285Z,14.80
2018-11-07T03:14:09.121Z,14.03
2018-11-07T03:16:38.541Z,14.33
2018-11-07T03:19:08.252Z,14.23
2018-11-07T03:21:37.510Z,14.13
2018-11-07T03:24:06.829Z,14.10
2018-11-07T03:26:36.310Z,14.07
2018-11-07T03:29:05.350Z,14.18
2018-11-07T03:31:34.556Z,14.18
2018-11-07T03:34:03.883Z,14.90
2018-11-07T03:36:32.970Z,14.53
2018-11-07T03:39:02.165Z,14.63
2018-11-07T03:41:31.594Z,14.40
2018-11-07T03:44:00.736Z,14.33
2018-11-07T03:46:29.868Z,15.00
2018-11-07T03:48:59.079Z,14.25
2018-11-07T03:51:28.132Z,15.28
2018-11-07T03:53:57.254Z,16.67
2018-11-07T03:56:26.574Z,15.32
2018-11-07T03:58:55.974Z,15.60
2018-11-07T04:01:25.213Z,14.40
2018-11-07T04:03:54.860Z,15.98
2018-11-07T04:06:24.045Z,16.95
2018-11-07T04:08:53.283Z,18.07
2018-11-07T04:11:22.559Z,18.50
2018-11-07T04:13:51.590Z,17.42
2018-11-07T04:16:20.807Z,19.05
2018-11-07T04:18:50.430Z,18.95
2018-11-07T04:21:19.710Z,18.92
2018-11-07T04:23:53.130Z,19.15
2018-11-07T04:26:22.520Z,17.52
2018-11-07T04:28:51.830Z,20.30
2018-11-07T04:31:21.250Z,20.45
2018-11-07T04:33:50.438Z,19.37
2018-11-07T04:36:19.738Z,21.85
2018-11-07T04:38:49.037Z,20.72
2018-11-07T04:41:18.266Z,20.48
2018-11-07T04:43:47.467Z,18.35
2018-11-07T04:46:16.838Z,20.90
2018-11-07T04:48:46.243Z,18.48
2018-11-07T04:51:15.870Z,21.97
2018-11-07T04:53:45.416Z,20.77
2018-11-07T04:56:14.653Z,21.27
2018-11-07T04:58:44.046Z,22.25
2018-11-07T05:01:13.670Z,21.07
2018-11-07T05:03:42.975Z,21.85
2018-11-07T05:06:12.239Z,22.20
2018-11-07T05:08:41.837Z,21.37
2018-11-07T05:11:10.842Z,21.87
2018-11-07T05:13:40.090Z,23.67
2018-11-07T05:16:09.198Z,21.42
2018-11-07T05:18:38.166Z,23.45
2018-11-07T05:21:07.448Z,25.10
2018-11-07T05:23:36.986Z,22.58
2018-11-07T05:26:06.328Z,20.82
2018-11-07T05:28:35.682Z,23.25
2018-11-07T05:31:05.440Z,23.07
2018-11-07T05:33:34.852Z,22.13
2018-11-07T05:36:03.959Z,24.50
2018-11-07T05:38:33.423Z,21.75
2018-11-07T05:41:02.642Z,24.67
2018-11-07T05:43:31.890Z,21.33
2018-11-07T05:46:01.226Z,20.23
2018-11-07T05:48:30.610Z,22.67
2018-11-07T05:51:00.005Z,18.70
2018-11-07T05:53:29.462Z,17.98
2018-11-07T05:55:58.719Z,20.70
2018-11-07T05:58:28.953Z,23.15
2018-11-07T06:00:58.202Z,23.00
2018-11-07T06:03:27.450Z,25.23
2018-11-07T06:05:56.836Z,22.95
2018-11-07T06:08:26.354Z,20.68
2018-11-07T06:10:55.651Z,20.95
2018-11-07T06:13:24.845Z,18.95
2018-11-07T06:15:54.503Z,22.93
2018-11-07T06:18:23.757Z,18.48
2018-11-07T06:20:53.136Z,21.70
2018-11-07T06:23:22.511Z,20.80
2018-11-07T06:25:51.874Z,18.05
2018-11-07T06:28:21.164Z,43.13
2018-11-07T06:30:50.731Z,34.45
2018-11-07T06:33:19.951Z,15.60
2018-11-07T06:35:49.386Z,16.02
2018-11-07T06:38:18.801Z,19.82
2018-11-07T06:40:47.690Z,16.57
2018-11-07T06:43:16.970Z,17.62
2018-11-07T06:45:46.058Z,20.20
2018-11-07T06:48:15.249Z,16.07
2018-11-07T06:50:44.469Z,18.17
2018-11-07T06:53:13.958Z,21.48
2018-11-07T06:55:43.020Z,20.17
2018-11-07T06:58:12.032Z,20.55
2018-11-07T07:00:41.413Z,22.30
2018-11-07T07:03:10.890Z,23.27
2018-11-07T07:05:40.287Z,23.85
2018-11-07T07:08:09.813Z,22.65
2018-11-07T07:10:38.882Z,22.70
2018-11-07T07:13:08.120Z,24.37
2018-11-07T07:15:37.458Z,22.60
2018-11-07T07:18:06.837Z,24.18
2018-11-07T07:20:35.990Z,23.65
2018-11-07T07:23:05.497Z,23.67
2018-11-07T07:25:34.846Z,22.17
2018-11-07T07:28:04.219Z,23.07
2018-11-07T07:30:33.608Z,24.50
2018-11-07T07:33:02.957Z,24.10
2018-11-07T07:35:32.233Z,22.77
2018-11-07T07:38:01.866Z,25.82
2018-11-07T07:40:30.991Z,23.38
2018-11-07T07:43:00.188Z,24.60
2018-11-07T07:45:29.693Z,23.50
2018-11-07T07:47:58.934Z,23.67
2018-11-07T07:50:27.789Z,23.18
2018-11-07T07:52:57.178Z,22.32
2018-11-07T07:55:26.424Z,24.15
2018-11-07T07:57:55.586Z,25.05
2018-11-07T08:00:25.134Z,25.25
2018-11-07T08:02:54.398Z,26.82
2018-11-07T08:05:23.702Z,25.10
2018-11-07T08:07:53.221Z,27.00
2018-11-07T08:10:23.035Z,26.70
2018-11-07T08:12:52.560Z,26.68
2018-11-07T08:15:21.780Z,28.12
2018-11-07T08:17:51.050Z,27.65
2018-11-07T08:20:20.360Z,28.30
2018-11-07T08:22:50.207Z,29.27
2018-11-07T08:25:19.411Z,29.42
2018-11-07T08:27:48.553Z,26.68
2018-11-07T08:30:19.305Z,27.82
2018-11-07T08:32:48.530Z,26.75
2018-11-07T08:35:19.549Z,18.67
2018-11-07T08:37:48.790Z,21.12
2018-11-07T08:40:20.197Z,16.75
2018-11-07T08:42:49.874Z,16.35
2018-11-07T08:45:19.186Z,15.00
2018-11-07T08:47:48.643Z,15.78
2018-11-07T08:50:19.410Z,16.42
2018-11-07T08:52:48.850Z,14.18
2018-11-07T08:55:20.309Z,14.87
2018-11-07T08:57:49.607Z,14.07
2018-11-07T09:00:25.222Z,16.05
2018-11-07T09:02:54.431Z,13.78
2018-11-07T09:05:23.802Z,11.63
2018-11-07T09:07:53.073Z,15.38
2018-11-07T09:10:23.378Z,15.53
2018-11-07T09:12:52.698Z,17.10
2018-11-07T09:15:23.234Z,15.08
2018-11-07T09:17:52.550Z,14.98
2018-11-07T09:20:22.870Z,13.30
2018-11-07T09:22:52.481Z,11.25
2018-11-07T09:25:21.707Z,13.80
2018-11-07T09:27:50.750Z,12.80
2018-11-07T09:30:23.077Z,15.35
2018-11-07T09:32:52.422Z,14.47
2018-11-07T09:35:22.106Z,13.00
2018-11-07T09:37:51.212Z,13.00
2018-11-07T09:40:21.527Z,13.55
2018-11-07T09:42:51.257Z,13.55
2018-11-07T09:45:21.697Z,12.60
2018-11-07T09:47:51.122Z,12.00
2018-11-07T09:50:20.794Z,15.10
2018-11-07T09:52:49.925Z,11.43
2018-11-07T09:55:20.374Z,12.95
2018-11-07T09:57:49.910Z,15.45
2018-11-07T10:00:20.470Z,12.47
2018-11-07T10:02:49.690Z,11.95
2018-11-07T10:05:20.314Z,14.25
2018-11-07T10:07:49.585Z,15.23
2018-11-07T10:10:20.221Z,14.55
2018-11-07T10:12:49.860Z,10.82
2018-11-07T10:15:19.535Z,13.30
2018-11-07T10:17:48.874Z,12.13
2018-11-07T10:20:20.532Z,12.28
2018-11-07T10:22:50.037Z,10.53
2018-11-07T10:25:19.544Z,11.35
2018-11-07T10:27:49.323Z,11.75
2018-11-07T10:30:19.636Z,9.90
2018-11-07T10:32:50.006Z,10.28
2018-11-07T10:35:19.415Z,11.10
2018-11-07T10:37:48.672Z,11.25
2018-11-07T10:40:23.440Z,10.35
2018-11-07T10:42:52.698Z,10.45
2018-11-07T10:45:21.959Z,9.98
2018-11-07T10:47:52.034Z,10.30
2018-11-07T10:50:21.807Z,9.75
2018-11-07T10:52:51.259Z,11.70
2018-11-07T10:55:20.694Z,11.63
2018-11-07T10:57:50.029Z,11.88
2018-11-07T11:00:24.411Z,10.85
2018-11-07T11:02:58.618Z,11.38
2018-11-07T11:05:27.760Z,11.48
2018-11-07T11:07:57.010Z,10.05
2018-11-07T11:10:26.102Z,10.78
2018-11-07T11:12:55.402Z,13.00
2018-11-07T11:15:24.610Z,11.00
2018-11-07T11:17:53.930Z,10.63
2018-11-07T11:20:23.483Z,11.33
2018-11-07T11:22:52.708Z,11.45
2018-11-07T11:25:22.125Z,9.88
2018-11-07T11:27:51.544Z,8.95
2018-11-07T11:30:20.846Z,8.63
2018-11-07T11:32:50.086Z,10.23
2018-11-07T11:35:19.603Z,9.38
2018-11-07T11:37:48.941Z,9.53
2018-11-07T11:40:18.263Z,8.95
2018-11-07T11:42:47.708Z,10.72
2018-11-07T11:45:17.554Z,9.68
2018-11-07T11:47:47.044Z,10.32
2018-11-07T11:50:17.724Z,9.63
2018-11-07T11:52:47.751Z,10.35
2018-11-07T11:55:17.229Z,11.20
2018-11-07T11:57:47.167Z,11.10
2018-11-07T12:00:18.485Z,9.25
2018-11-07T12:02:47.926Z,9.03
2018-11-07T12:05:18.228Z,10.70
2018-11-07T12:07:47.541Z,11.03
2018-11-07T12:10:17.534Z,9.80
2018-11-07T12:12:48.139Z,10.75
2018-11-07T12:15:18.602Z,9.88
2018-11-07T12:17:48.031Z,10.98
2018-11-07T12:20:17.359Z,10.30
2018-11-07T12:22:46.517Z,11.03
2018-11-07T12:25:16.432Z,9.83
2018-11-07T12:27:45.850Z,11.25
2018-11-07T12:30:18.930Z,10.15
2018-11-07T12:32:49.306Z,10.98
2018-11-07T12:35:19.172Z,11.18
2018-11-07T12:37:48.399Z,10.63
2018-11-07T12:40:18.405Z,10.48
2018-11-07T12:42:47.646Z,11.55
2018-11-07T12:45:17.416Z,10.08
2018-11-07T12:47:47.058Z,10.43
2018-11-07T12:50:19.812Z,9.80
2018-11-07T12:52:49.330Z,9.98
2018-11-07T12:55:19.283Z,9.60
2018-11-07T12:57:48.773Z,10.08
2018-11-07T13:00:23.367Z,11.03
2018-11-07T13:02:52.857Z,10.58
2018-11-07T13:05:22.853Z,10.82
2018-11-07T13:07:52.998Z,10.10
2018-11-07T13:10:22.802Z,9.70
2018-11-07T13:12:52.542Z,10.10
2018-11-07T13:15:21.917Z,11.20
2018-11-07T13:17:51.650Z,10.30
2018-11-07T13:20:23.470Z,11.40
2018-11-07T13:22:53.798Z,11.45
2018-11-07T13:25:23.426Z,11.75
2018-11-07T13:27:53.115Z,10.88
2018-11-07T13:30:22.852Z,11.08
2018-11-07T13:32:52.035Z,10.63
2018-11-07T13:35:21.725Z,11.33
2018-11-07T13:37:51.639Z,11.12
2018-11-07T13:40:21.932Z,11.18
2018-11-07T13:42:51.475Z,11.63
2018-11-07T13:45:21.907Z,11.33
2018-11-07T13:47:52.038Z,11.48
2018-11-07T13:50:21.569Z,11.50
2018-11-07T13:52:50.781Z,12.93
2018-11-07T13:55:20.070Z,12.30
2018-11-07T13:57:49.566Z,10.95
2018-11-07T14:00:20.270Z,11.18
2018-11-07T14:02:49.855Z,12.00
2018-11-07T14:05:19.399Z,11.90
2018-11-07T14:07:48.590Z,9.88
2018-11-07T14:10:20.411Z,11.97
2018-11-07T14:12:49.890Z,11.53
2018-11-07T14:15:19.276Z,11.00
2018-11-07T14:17:48.730Z,11.68
2018-11-07T14:20:17.994Z,11.45
2018-11-07T14:22:47.167Z,9.65
2018-11-07T14:25:16.822Z,11.63
2018-11-07T14:27:46.360Z,12.65
2018-11-07T14:30:16.711Z,10.63
2018-11-07T14:32:50.378Z,10.15
2018-11-07T14:35:19.779Z,12.55
2018-11-07T14:37:49.011Z,13.30
2018-11-07T14:40:18.279Z,12.85
2018-11-07T14:42:47.668Z,13.62
2018-11-07T14:45:16.860Z,15.85
2018-11-07T14:47:46.266Z,16.75
2018-11-07T14:50:15.742Z,14.78
2018-11-07T14:52:45.162Z,15.53
2018-11-07T14:55:14.626Z,18.35
2018-11-07T14:57:43.868Z,9.18
2018-11-07T15:00:16.230Z,14.68
2018-11-07T15:02:46.044Z,16.42
2018-11-07T15:05:16.013Z,16.65
2018-11-07T15:07:45.727Z,17.40
2018-11-07T15:10:15.874Z,16.85
2018-11-07T15:12:45.283Z,16.55
2018-11-07T15:15:16.989Z,15.88
2018-11-07T15:17:46.354Z,16.57
2018-11-07T15:20:16.426Z,14.63
2018-11-07T15:22:45.910Z,13.32
2018-11-07T15:25:15.898Z,14.33
2018-11-07T15:27:46.002Z,13.75
2018-11-07T15:30:16.267Z,14.25
2018-11-07T15:32:45.805Z,15.80
2018-11-07T15:35:15.084Z,15.35
2018-11-07T15:37:44.557Z,16.52
2018-11-07T15:40:14.959Z,14.13
2018-11-07T15:42:44.668Z,14.25
2018-11-07T15:45:15.478Z,15.75
2018-11-07T15:47:44.848Z,17.23
2018-11-07T15:50:19.080Z,17.50
2018-11-07T15:52:48.797Z,16.52
2018-11-07T15:55:18.273Z,15.00
2018-11-07T15:57:48.039Z,11.65
2018-11-07T16:00:18.115Z,17.37
2018-11-07T16:02:47.489Z,16.45
2018-11-07T16:05:17.519Z,16.80
2018-11-07T16:07:46.974Z,16.95
2018-11-07T16:10:16.849Z,17.25
2018-11-07T16:12:46.125Z,16.15
2018-11-07T16:15:16.488Z,17.25
2018-11-07T16:17:46.007Z,18.02
2018-11-07T16:20:19.758Z,17.00
2018-11-07T16:22:49.637Z,19.15
2018-11-07T16:25:18.799Z,19.12
2018-11-07T16:27:48.391Z,19.20
2018-11-07T16:30:19.107Z,18.90
2018-11-07T16:32:48.251Z,17.23
2018-11-07T16:35:17.932Z,18.02
2018-11-07T16:37:47.416Z,19.95
2018-11-07T16:40:17.858Z,18.80
2018-11-07T16:42:47.374Z,21.05
2018-11-07T16:45:17.423Z,17.45
2018-11-07T16:47:47.812Z,15.95
2018-11-07T16:50:17.975Z,15.80
2018-11-07T16:52:47.693Z,17.57
2018-11-07T16:55:17.166Z,17.77
2018-11-07T16:57:46.680Z,14.68
2018-11-07T17:00:17.214Z,16.80
2018-11-07T17:02:46.837Z,16.20
2018-11-07T17:05:16.770Z,16.02
2018-11-07T17:07:46.373Z,14.70
2018-11-07T17:10:15.627Z,17.50
2018-11-07T17:12:44.981Z,17.30
2018-11-07T17:15:14.436Z,17.77
2018-11-07T17:17:43.723Z,18.17
2018-11-07T17:20:14.327Z,19.87
2018-11-07T17:22:43.722Z,18.45
2018-11-07T17:25:14.946Z,19.10
2018-11-07T17:27:44.686Z,19.42
2018-11-07T17:30:14.850Z,21.02
2018-11-07T17:32:44.042Z,18.82
2018-11-07T17:35:15.586Z,20.40
2018-11-07T17:37:45.117Z,19.98
2018-11-07T17:40:16.839Z,19.57
2018-11-07T17:42:46.345Z,18.00
2018-11-07T17:45:17.734Z,18.27
2018-11-07T17:47:47.537Z,20.85
2018-11-07T17:50:17.544Z,20.65
2018-11-07T17:52:46.886Z,18.00
2018-11-07T17:55:17.010Z,17.17
2018-11-07T17:57:46.278Z,18.50
2018-11-07T18:00:17.980Z,18.85
2018-11-07T18:02:47.055Z,18.55
2018-11-07T18:05:16.306Z,19.45
2018-11-07T18:07:45.928Z,19.48
2018-11-07T18:10:16.235Z,18.20
2018-11-07T18:12:45.505Z,18.98
2018-11-07T18:15:14.925Z,19.62
2018-11-07T18:17:44.153Z,17.48
2018-11-07T18:20:14.499Z,19.65
2018-11-07T18:22:43.861Z,20.45
2018-11-07T18:25:14.168Z,21.30
2018-11-07T18:27:43.622Z,20.40
2018-11-07T18:30:14.434Z,23.67
2018-11-07T18:32:44.597Z,21.97
2018-11-07T18:35:15.091Z,22.93
2018-11-07T18:37:44.684Z,19.37
2018-11-07T18:40:15.102Z,21.90
2018-11-07T18:42:44.369Z,21.17
2018-11-07T18:45:14.091Z,20.08
2018-11-07T18:47:45.240Z,18.73
2018-11-07T18:50:16.944Z,17.35
2018-11-07T18:52:46.183Z,15.23
2018-11-07T18:55:16.258Z,13.05
2018-11-07T18:57:46.264Z,15.58
2018-11-07T19:00:18.365Z,14.05
2018-11-07T19:02:48.394Z,16.05
2018-11-07T19:05:17.831Z,22.60
2018-11-07T19:07:47.105Z,26.40
2018-11-07T19:10:18.137Z,27.45
2018-11-07T19:12:47.984Z,28.85
2018-11-07T19:15:17.594Z,29.52
2018-11-07T19:17:48.011Z,28.67
2018-11-07T19:20:17.904Z,30.02
2018-11-07T19:22:47.116Z,28.77
2018-11-07T19:25:17.625Z,30.35
2018-11-07T19:27:46.719Z,31.33
2018-11-07T19:30:17.041Z,29.57
2018-11-07T19:32:47.528Z,28.65
2018-11-07T19:35:17.596Z,26.93
2018-11-07T19:37:48.586Z,28.95
2018-11-07T19:40:20.323Z,27.40
2018-11-07T19:42:49.972Z,25.32
2018-11-07T19:45:20.137Z,25.88
2018-11-07T19:47:49.749Z,25.43
2018-11-07T19:50:21.893Z,26.12
2018-11-07T19:52:51.609Z,26.02
2018-11-07T19:55:22.722Z,25.45
2018-11-07T19:57:57.636Z,25.20
2018-11-07T20:00:27.041Z,25.27
2018-11-07T20:02:56.301Z,25.65
2018-11-07T20:05:25.615Z,26.15
2018-11-07T20:07:54.938Z,25.05
2018-11-07T20:10:24.258Z,24.00
2018-11-07T20:12:53.473Z,24.05
2018-11-07T20:15:23.249Z,23.10
2018-11-07T20:17:52.322Z,22.55
2018-11-07T20:20:21.943Z,23.35
2018-11-07T20:22:51.212Z,22.80
2018-11-07T20:25:20.354Z,23.67
2018-11-07T20:27:49.630Z,22.22
2018-11-07T20:30:20.179Z,23.25
2018-11-07T20:32:49.570Z,24.07
2018-11-07T20:35:19.599Z,24.98
2018-11-07T20:37:49.029Z,25.45
2018-11-07T20:40:26.414Z,24.35
2018-11-07T20:42:56.614Z,25.55
2018-11-07T20:45:25.908Z,25.82
2018-11-07T20:47:55.213Z,25.60
2018-11-07T20:50:24.618Z,26.93
2018-11-07T20:52:53.925Z,26.97
2018-11-07T20:55:23.336Z,27.42
2018-11-07T20:57:52.790Z,27.50
2018-11-07T21:00:23.072Z,27.73
2018-11-07T21:02:52.380Z,29.20
2018-11-07T21:05:21.756Z,30.27
2018-11-07T21:07:51.165Z,33.60
2018-11-07T21:10:21.362Z,34.63
2018-11-07T21:12:51.350Z,34.15
2018-11-07T21:15:21.255Z,36.38
2018-11-07T21:17:50.505Z,35.88
2018-11-07T21:20:19.833Z,36.88
2018-11-07T21:22:49.169Z,38.00
2018-11-07T21:25:18.530Z,38.20
2018-11-07T21:27:47.974Z,36.70
2018-11-07T21:30:17.194Z,37.55
2018-11-07T21:32:46.299Z,40.28
2018-11-07T21:35:15.716Z,40.38
2018-11-07T21:37:44.706Z,44.10
2018-11-07T21:40:15.790Z,42.78
2018-11-07T21:42:45.854Z,44.55
2018-11-07T21:45:15.566Z,46.63
2018-11-07T21:47:45.150Z,45.17
2018-11-07T21:50:15.854Z,46.37
2018-11-07T21:52:45.251Z,48.30
2018-11-07T21:55:14.454Z,50.00
2018-11-07T21:57:43.955Z,49.23
2018-11-07T22:00:15.721Z,47.20
2018-11-07T22:02:45.693Z,49.50
2018-11-07T22:05:15.464Z,49.10
2018-11-07T22:07:44.602Z,45.60
2018-11-07T22:10:14.827Z,46.73
2018-11-07T22:12:44.164Z,49.75
2018-11-07T22:15:13.464Z,47.08
2018-11-07T22:17:42.855Z,47.78
2018-11-07T22:20:15.522Z,49.23
2018-11-07T22:22:45.409Z,46.85
2018-11-07T22:25:14.690Z,44.38
2018-11-07T22:27:43.857Z,45.28
2018-11-07T22:30:14.887Z,41.83
2018-11-07T22:32:44.144Z,45.65
2018-11-07T22:35:14.806Z,43.70
2018-11-07T22:37:44.785Z,41.83
2018-11-07T22:40:15.210Z,39.92
2018-11-07T22:42:44.514Z,34.75
2018-11-07T22:45:14.329Z,36.33
2018-11-07T22:47:43.710Z,36.77
2018-11-07T22:50:13.959Z,35.05
2018-11-07T22:52:44.331Z,35.75
2018-11-07T22:55:13.503Z,33.23
2018-11-07T22:57:42.963Z,32.13
2018-11-07T23:00:19.864Z,31.50
2018-11-07T23:02:50.555Z,25.90
2018-11-07T23:05:19.889Z,31.60
2018-11-07T23:07:49.851Z,33.92
2018-11-07T23:10:19.221Z,31.97
2018-11-07T23:12:48.915Z,32.40
2018-11-07T23:15:23.252Z,32.60
2018-11-07T23:17:52.464Z,33.02
2018-11-07T23:20:21.858Z,33.53
2018-11-07T23:22:51.504Z,36.35
2018-11-07T23:25:20.876Z,35.50
2018-11-07T23:27:50.145Z,37.35
2018-11-07T23:30:19.595Z,37.88
2018-11-07T23:32:48.857Z,37.38
2018-11-07T23:35:18.261Z,38.70
2018-11-07T23:37:47.822Z,36.00
2018-11-07T23:40:16.995Z,33.23
2018-11-07T23:42:46.190Z,29.42
2018-11-07T23:45:15.603Z,31.33
2018-11-07T23:47:45.092Z,32.23
2018-11-07T23:50:14.382Z,26.37
2018-11-07T23:52:48.474Z,29.82
2018-11-07T23:55:19.442Z,30.12
2018-11-07T23:57:49.386Z,30.20
